sensor_id;sensor_type;location;lat;lon;timestamp;pressure;altitude;pressure_sealevel;temperature;humidity
6853;BME280;3465;42.144;24.722;2023-08-06T00:01:36;148640.88;;;22.85;100.00
6853;BME280;3465;42.144;24.722;2023-08-06T00:06:27;148635.88;;;22.83;100.00
6853;BME280;3465;42.144;24.722;2023-08-06T00:08:52;148651.03;;;22.89;100.00
6853;BME280;3465;42.144;24.722;2023-08-06T00:11:17;148620.66;;;22.77;100.00
6853;BME280;3465;42.144;24.722;2023-08-06T00:13:43;148625.72;;;22.79;100.00
6853;BME280;3465;42.144;24.722;2023-08-06T00:16:12;148620.66;;;22.77;100.00
6853;BME280;3465;42.144;24.722;2023-08-06T00:18:38;148599.19;;;22.69;100.00
6853;BME280;3465;42.144;24.722;2023-08-06T00:21:04;148594.09;;;22.67;100.00
6853;BME280;3465;42.144;24.722;2023-08-06T00:23:29;148539.66;;;22.45;100.00
6853;BME280;3465;42.144;24.722;2023-08-06T00:25:55;148552.31;;;22.50;100.00
6853;BME280;3465;42.144;24.722;2023-08-06T00:28:20;148506.81;;;22.32;100.00
6853;BME280;3465;42.144;24.722;2023-08-06T00:30:46;148527.06;;;22.40;100.00
6853;BME280;3465;42.144;24.722;2023-08-06T00:33:11;148533.34;;;22.42;100.00
6853;BME280;3465;42.144;24.722;2023-08-06T00:35:36;148506.81;;;22.32;100.00
6853;BME280;3465;42.144;24.722;2023-08-06T00:38:02;148501.75;;;22.30;100.00
6853;BME280;3465;42.144;24.722;2023-08-06T00:40:27;148521.97;;;22.38;100.00
6853;BME280;3465;42.144;24.722;2023-08-06T00:42:56;148504.25;;;22.31;100.00
6853;BME280;3465;42.144;24.722;2023-08-06T00:45:21;148508.06;;;22.32;100.00
6853;BME280;3465;42.144;24.722;2023-08-06T00:47:47;148439.78;;;22.05;100.00
6853;BME280;3465;42.144;24.722;2023-08-06T00:50:13;148480.25;;;22.21;100.00
6853;BME280;3465;42.144;24.722;2023-08-06T00:52:38;148447.38;;;22.08;100.00
6853;BME280;3465;42.144;24.722;2023-08-06T00:55:05;148429.69;;;22.01;100.00
6853;BME280;3465;42.144;24.722;2023-08-06T00:57:31;148423.34;;;21.99;100.00
6853;BME280;3465;42.144;24.722;2023-08-06T00:59:56;148419.56;;;21.97;100.00
6853;BME280;3465;42.144;24.722;2023-08-06T01:02:22;148405.69;;;21.92;100.00
6853;BME280;3465;42.144;24.722;2023-08-06T01:04:47;148408.19;;;21.93;100.00
6853;BME280;3465;42.144;24.722;2023-08-06T01:07:37;148401.84;;;21.90;100.00
6853;BME280;3465;42.144;24.722;2023-08-06T01:15:49;148362.63;;;21.75;100.00
6853;BME280;3465;42.144;24.722;2023-08-06T01:18:15;148400.59;;;21.90;100.00
6853;BME280;3465;42.144;24.722;2023-08-06T01:20:41;148415.75;;;21.96;100.00
6853;BME280;3465;42.144;24.722;2023-08-06T01:23:07;148446.13;;;22.08;100.00
6853;BME280;3465;42.144;24.722;2023-08-06T01:28:24;148452.44;;;22.10;100.00
6853;BME280;3465;42.144;24.722;2023-08-06T01:30:54;148466.34;;;22.16;100.00
6853;BME280;3465;42.144;24.722;2023-08-06T01:33:21;148473.94;;;22.19;100.00
6853;BME280;3465;42.144;24.722;2023-08-06T01:35:49;148480.25;;;22.21;100.00
6853;BME280;3465;42.144;24.722;2023-08-06T01:38:16;148481.53;;;22.22;100.00
6853;BME280;3465;42.144;24.722;2023-08-06T01:40:41;148476.44;;;22.20;100.00
6853;BME280;3465;42.144;24.722;2023-08-06T01:43:06;148484.03;;;22.23;100.00
6853;BME280;3465;42.144;24.722;2023-08-06T01:45:32;148484.03;;;22.23;100.00
6853;BME280;3465;42.144;24.722;2023-08-06T01:47:57;148468.88;;;22.17;100.00
6853;BME280;3465;42.144;24.722;2023-08-06T01:50:23;148438.50;;;22.05;100.00
6853;BME280;3465;42.144;24.722;2023-08-06T01:52:48;148425.91;;;22.00;100.00
6853;BME280;3465;42.144;24.722;2023-08-06T01:55:13;148441.06;;;22.06;100.00
6853;BME280;3465;42.144;24.722;2023-08-06T01:57:39;148433.47;;;22.03;100.00
6853;BME280;3465;42.144;24.722;2023-08-06T02:00:05;148437.28;;;22.04;100.00
6853;BME280;3465;42.144;24.722;2023-08-06T02:02:30;148434.72;;;22.03;100.00
6853;BME280;3465;42.144;24.722;2023-08-06T02:04:56;148427.13;;;22.00;100.00
6853;BME280;3465;42.144;24.722;2023-08-06T02:07:23;148425.91;;;22.00;100.00
6853;BME280;3465;42.144;24.722;2023-08-06T02:09:48;148444.84;;;22.07;100.00
6853;BME280;3465;42.144;24.722;2023-08-06T02:12:14;148432.19;;;22.02;100.00
6853;BME280;3465;42.144;24.722;2023-08-06T02:14:39;148393.03;;;21.87;100.00
6853;BME280;3465;42.144;24.722;2023-08-06T02:17:04;148403.13;;;21.91;100.00
6853;BME280;3465;42.144;24.722;2023-08-06T02:19:30;148381.63;;;21.82;100.00
6853;BME280;3465;42.144;24.722;2023-08-06T02:21:56;148367.72;;;21.77;100.00
6853;BME280;3465;42.144;24.722;2023-08-06T02:24:21;148346.19;;;21.68;100.00
6853;BME280;3465;42.144;24.722;2023-08-06T02:26:46;148346.19;;;21.68;100.00
6853;BME280;3465;42.144;24.722;2023-08-06T02:29:14;148333.53;;;21.63;100.00
6853;BME280;3465;42.144;24.722;2023-08-06T02:31:39;148346.19;;;21.68;100.00
6853;BME280;3465;42.144;24.722;2023-08-06T02:34:05;148344.97;;;21.68;100.00
6853;BME280;3465;42.144;24.722;2023-08-06T02:36:30;148355.03;;;21.72;100.00
6853;BME280;3465;42.144;24.722;2023-08-06T02:38:56;148331.03;;;21.62;100.00
6853;BME280;3465;42.144;24.722;2023-08-06T02:41:22;148358.81;;;21.73;100.00
6853;BME280;3465;42.144;24.722;2023-08-06T02:43:47;148327.25;;;21.61;100.00
6853;BME280;3465;42.144;24.722;2023-08-06T02:46:12;148337.34;;;21.65;100.00
6853;BME280;3465;42.144;24.722;2023-08-06T02:48:38;148339.88;;;21.66;100.00
6853;BME280;3465;42.144;24.722;2023-08-06T02:51:03;148341.13;;;21.66;100.00
6853;BME280;3465;42.144;24.722;2023-08-06T02:53:29;148333.53;;;21.63;100.00
6853;BME280;3465;42.144;24.722;2023-08-06T02:55:54;148299.44;;;21.50;100.00
6853;BME280;3465;42.144;24.722;2023-08-06T02:58:20;148299.44;;;21.50;100.00
6853;BME280;3465;42.144;24.722;2023-08-06T03:01:02;148274.16;;;21.40;100.00
6853;BME280;3465;42.144;24.722;2023-08-06T03:03:29;148298.16;;;21.49;100.00
6853;BME280;3465;42.144;24.722;2023-08-06T03:05:54;148309.53;;;21.54;100.00
6853;BME280;3465;42.144;24.722;2023-08-06T03:08:20;148313.31;;;21.55;100.00
6853;BME280;3465;42.144;24.722;2023-08-06T03:10:48;148307.03;;;21.53;100.00
6853;BME280;3465;42.144;24.722;2023-08-06T03:13:14;148262.78;;;21.35;100.00
6853;BME280;3465;42.144;24.722;2023-08-06T03:15:39;148284.28;;;21.44;100.00
6853;BME280;3465;42.144;24.722;2023-08-06T03:18:05;148128.84;;;20.82;100.00
6853;BME280;3465;42.144;24.722;2023-08-06T03:20:32;148300.69;;;21.50;100.00
6853;BME280;3465;42.144;24.722;2023-08-06T03:22:57;148307.03;;;21.53;100.00
6853;BME280;3465;42.144;24.722;2023-08-06T03:25:23;148309.53;;;21.54;100.00
6853;BME280;3465;42.144;24.722;2023-08-06T03:27:48;148291.88;;;21.47;100.00
6853;BME280;3465;42.144;24.722;2023-08-06T03:30:13;148284.28;;;21.44;100.00
6853;BME280;3465;42.144;24.722;2023-08-06T03:32:39;148288.09;;;21.45;100.00
6853;BME280;3465;42.144;24.722;2023-08-06T03:35:05;148259.00;;;21.34;100.00
6853;BME280;3465;42.144;24.722;2023-08-06T03:37:30;148195.81;;;21.08;100.00
6853;BME280;3465;42.144;24.722;2023-08-06T03:39:55;148240.03;;;21.26;100.00
6853;BME280;3465;42.144;24.722;2023-08-06T03:42:21;148226.16;;;21.20;100.00
6853;BME280;3465;42.144;24.722;2023-08-06T03:44:46;148231.22;;;21.22;100.00
6853;BME280;3465;42.144;24.722;2023-08-06T03:47:13;148246.38;;;21.28;100.00
6853;BME280;3465;42.144;24.722;2023-08-06T03:49:38;148257.72;;;21.33;100.00
6853;BME280;3465;42.144;24.722;2023-08-06T03:52:04;148260.25;;;21.34;100.00
6853;BME280;3465;42.144;24.722;2023-08-06T03:54:30;148285.53;;;21.44;100.00
6853;BME280;3465;42.144;24.722;2023-08-06T03:56:55;148300.69;;;21.50;100.00
6853;BME280;3465;42.144;24.722;2023-08-06T03:59:20;148296.88;;;21.49;100.00
6853;BME280;3465;42.144;24.722;2023-08-06T04:01:46;148293.09;;;21.47;100.00
6853;BME280;3465;42.144;24.722;2023-08-06T04:04:11;148301.94;;;21.51;100.00
6853;BME280;3465;42.144;24.722;2023-08-06T04:06:37;148288.09;;;21.45;100.00
6853;BME280;3465;42.144;24.722;2023-08-06T04:09:02;148291.88;;;21.47;100.00
6853;BME280;3465;42.144;24.722;2023-08-06T04:11:28;148318.38;;;21.57;100.00
6853;BME280;3465;42.144;24.722;2023-08-06T04:13:53;148298.16;;;21.49;100.00
6853;BME280;3465;42.144;24.722;2023-08-06T04:16:20;148284.28;;;21.44;100.00
6853;BME280;3465;42.144;24.722;2023-08-06T04:18:46;148251.44;;;21.31;100.00
6853;BME280;3465;42.144;24.722;2023-08-06T04:21:11;148229.94;;;21.22;100.00
6853;BME280;3465;42.144;24.722;2023-08-06T04:23:37;148256.47;;;21.33;100.00
6853;BME280;3465;42.144;24.722;2023-08-06T04:26:02;148226.16;;;21.20;100.00
6853;BME280;3465;42.144;24.722;2023-08-06T04:28:28;148253.94;;;21.32;100.00
6853;BME280;3465;42.144;24.722;2023-08-06T04:30:53;148272.88;;;21.39;100.00
6853;BME280;3465;42.144;24.722;2023-08-06T04:33:20;148295.66;;;21.48;100.00
6853;BME280;3465;42.144;24.722;2023-08-06T04:35:45;148298.16;;;21.49;100.00
6853;BME280;3465;42.144;24.722;2023-08-06T04:38:11;148342.41;;;21.67;100.00
6853;BME280;3465;42.144;24.722;2023-08-06T04:40:36;148253.94;;;21.32;100.00
6853;BME280;3465;42.144;24.722;2023-08-06T04:43:02;148387.97;;;21.85;100.00
6853;BME280;3465;42.144;24.722;2023-08-06T04:45:27;148428.41;;;22.01;100.00
6853;BME280;3465;42.144;24.722;2023-08-06T04:47:53;148437.28;;;22.04;100.00
6853;BME280;3465;42.144;24.722;2023-08-06T04:50:19;148442.28;;;22.06;100.00
6853;BME280;3465;42.144;24.722;2023-08-06T04:52:45;148439.78;;;22.05;100.00
6853;BME280;3465;42.144;24.722;2023-08-06T04:55:10;148433.47;;;22.03;100.00
6853;BME280;3465;42.144;24.722;2023-08-06T04:57:36;148289.31;;;21.46;100.00
6853;BME280;3465;42.144;24.722;2023-08-06T05:00:01;148447.38;;;22.08;100.00
6853;BME280;3465;42.144;24.722;2023-08-06T05:02:27;148441.06;;;22.06;100.00
6853;BME280;3465;42.144;24.722;2023-08-06T05:04:52;148438.50;;;22.05;100.00
6853;BME280;3465;42.144;24.722;2023-08-06T05:07:17;148415.75;;;21.96;100.00
6853;BME280;3465;42.144;24.722;2023-08-06T05:09:43;148433.47;;;22.03;100.00
6853;BME280;3465;42.144;24.722;2023-08-06T05:12:08;148403.13;;;21.91;100.00
6853;BME280;3465;42.144;24.722;2023-08-06T05:14:34;148390.47;;;21.86;100.00
6853;BME280;3465;42.144;24.722;2023-08-06T05:16:59;148403.13;;;21.91;100.00
6853;BME280;3465;42.144;24.722;2023-08-06T05:19:27;148405.69;;;21.92;100.00
6853;BME280;3465;42.144;24.722;2023-08-06T05:21:52;148405.69;;;21.92;100.00
6853;BME280;3465;42.144;24.722;2023-08-06T05:24:18;148404.41;;;21.91;100.00
6853;BME280;3465;42.144;24.722;2023-08-06T05:26:43;148427.13;;;22.00;100.00
6853;BME280;3465;42.144;24.722;2023-08-06T05:29:11;148422.06;;;21.98;100.00
6853;BME280;3465;42.144;24.722;2023-08-06T05:31:37;148427.13;;;22.00;100.00
6853;BME280;3465;42.144;24.722;2023-08-06T05:34:02;148425.91;;;22.00;100.00
6853;BME280;3465;42.144;24.722;2023-08-06T05:36:28;148430.91;;;22.02;100.00
6853;BME280;3465;42.144;24.722;2023-08-06T05:38:53;148417.03;;;21.96;100.00
6853;BME280;3465;42.144;24.722;2023-08-06T05:41:19;148360.09;;;21.74;100.00
6853;BME280;3465;42.144;24.722;2023-08-06T05:43:44;148332.31;;;21.63;100.00
6853;BME280;3465;42.144;24.722;2023-08-06T05:46:10;148304.50;;;21.52;100.00
6853;BME280;3465;42.144;24.722;2023-08-06T05:48:35;148289.31;;;21.46;100.00
6853;BME280;3465;42.144;24.722;2023-08-06T05:51:01;148267.88;;;21.37;100.00
6853;BME280;3465;42.144;24.722;2023-08-06T05:53:26;148243.88;;;21.27;100.00
6853;BME280;3465;42.144;24.722;2023-08-06T05:55:51;148245.09;;;21.28;100.00
6853;BME280;3465;42.144;24.722;2023-08-06T05:58:17;148238.78;;;21.25;100.00
6853;BME280;3465;42.144;24.722;2023-08-06T06:00:42;148229.94;;;21.22;100.00
6853;BME280;3465;42.144;24.722;2023-08-06T06:03:08;148211.00;;;21.14;100.00
6853;BME280;3465;42.144;24.722;2023-08-06T06:05:34;148189.53;;;21.06;100.00
6853;BME280;3465;42.144;24.722;2023-08-06T06:07:59;148166.78;;;20.97;100.00
6853;BME280;3465;42.144;24.722;2023-08-06T06:10:25;148154.09;;;20.92;100.00
6853;BME280;3465;42.144;24.722;2023-08-06T06:12:50;148132.63;;;20.83;100.00
6853;BME280;3465;42.144;24.722;2023-08-06T06:15:15;148085.91;;;20.65;100.00
6853;BME280;3465;42.144;24.722;2023-08-06T06:17:41;148112.41;;;20.75;100.00
6853;BME280;3465;42.144;24.722;2023-08-06T06:20:07;148114.94;;;20.76;100.00
6853;BME280;3465;42.144;24.722;2023-08-06T06:22:32;148104.84;;;20.72;100.00
6853;BME280;3465;42.144;24.722;2023-08-06T06:24:57;148102.34;;;20.71;100.00
6853;BME280;3465;42.144;24.722;2023-08-06T06:27:23;148102.34;;;20.71;100.00
6853;BME280;3465;42.144;24.722;2023-08-06T06:29:48;148106.13;;;20.73;100.00
6853;BME280;3465;42.144;24.722;2023-08-06T06:32:14;148098.50;;;20.70;100.00
6853;BME280;3465;42.144;24.722;2023-08-06T06:34:39;148104.84;;;20.72;100.00
6853;BME280;3465;42.144;24.722;2023-08-06T06:37:04;148069.50;;;20.58;100.00
6853;BME280;3465;42.144;24.722;2023-08-06T06:39:30;148096.00;;;20.69;100.00
6853;BME280;3465;42.144;24.722;2023-08-06T06:41:56;148107.34;;;20.73;100.00
6853;BME280;3465;42.144;24.722;2023-08-06T06:44:21;148132.63;;;20.83;100.00
6853;BME280;3465;42.144;24.722;2023-08-06T06:46:47;148135.13;;;20.84;100.00
6853;BME280;3465;42.144;24.722;2023-08-06T06:49:12;148149.03;;;20.90;100.00
6853;BME280;3465;42.144;24.722;2023-08-06T06:51:38;148169.31;;;20.98;100.00
6853;BME280;3465;42.144;24.722;2023-08-06T06:54:03;148204.66;;;21.12;100.00
6853;BME280;3465;42.144;24.722;2023-08-06T06:56:28;148240.03;;;21.26;100.00
6853;BME280;3465;42.144;24.722;2023-08-06T06:58:54;148259.00;;;21.34;100.00
6853;BME280;3465;42.144;24.722;2023-08-06T07:01:19;148276.66;;;21.41;100.00
6853;BME280;3465;42.144;24.722;2023-08-06T07:03:44;148280.47;;;21.42;100.00
6853;BME280;3465;42.144;24.722;2023-08-06T07:06:10;148324.72;;;21.60;100.00
6853;BME280;3465;42.144;24.722;2023-08-06T07:08:37;148343.69;;;21.67;100.00
6853;BME280;3465;42.144;24.722;2023-08-06T07:11:03;148380.38;;;21.82;100.00
6853;BME280;3465;42.144;24.722;2023-08-06T07:13:30;148352.53;;;21.71;100.00
6853;BME280;3465;42.144;24.722;2023-08-06T07:15:55;148430.91;;;22.02;100.00
6853;BME280;3465;42.144;24.722;2023-08-06T07:18:21;148496.69;;;22.28;100.00
6853;BME280;3465;42.144;24.722;2023-08-06T07:20:54;148554.88;;;22.51;100.00
6853;BME280;3465;42.144;24.722;2023-08-06T07:23:24;148657.34;;;22.92;100.00
6853;BME280;3465;42.144;24.722;2023-08-06T07:25:50;148719.34;;;23.16;100.00
6853;BME280;3465;42.144;24.722;2023-08-06T07:28:16;148714.28;;;23.14;100.00
6853;BME280;3465;42.144;24.722;2023-08-06T07:30:43;148820.63;;;23.56;100.00
6853;BME280;3465;42.144;24.722;2023-08-06T07:33:08;148752.31;;;23.29;100.00
6853;BME280;3465;42.144;24.722;2023-08-06T07:35:36;148962.47;;;24.13;100.00
6853;BME280;3465;42.144;24.722;2023-08-06T07:38:02;149018.19;;;24.35;100.00
6853;BME280;3465;42.144;24.722;2023-08-06T07:40:27;149057.47;;;24.50;100.00
6853;BME280;3465;42.144;24.722;2023-08-06T07:42:53;149170.25;;;24.95;100.00
6853;BME280;3465;42.144;24.722;2023-08-06T07:45:19;149281.78;;;25.39;100.00
6853;BME280;3465;42.144;24.722;2023-08-06T07:47:44;149310.94;;;25.51;100.00
6853;BME280;3465;42.144;24.722;2023-08-06T07:50:10;149236.16;;;25.21;100.00
6853;BME280;3465;42.144;24.722;2023-08-06T07:52:35;149104.38;;;24.69;100.00
6853;BME280;3465;42.144;24.722;2023-08-06T07:55:01;149015.66;;;24.34;100.00
6853;BME280;3465;42.144;24.722;2023-08-06T07:57:31;148932.09;;;24.01;100.00
6853;BME280;3465;42.144;24.722;2023-08-06T07:59:56;148937.13;;;24.02;100.00
6853;BME280;3465;42.144;24.722;2023-08-06T08:02:21;148835.81;;;23.62;100.00
6853;BME280;3465;42.144;24.722;2023-08-06T08:04:47;148818.13;;;23.55;100.00
6853;BME280;3465;42.144;24.722;2023-08-06T08:07:13;148751.03;;;23.29;100.00
6853;BME280;3465;42.144;24.722;2023-08-06T08:09:38;148718.06;;;23.16;100.00
6853;BME280;3465;42.144;24.722;2023-08-06T08:12:04;148658.63;;;22.92;100.00
6853;BME280;3465;42.144;24.722;2023-08-06T08:14:30;148628.28;;;22.80;100.00
6853;BME280;3465;42.144;24.722;2023-08-06T08:17:01;148580.16;;;22.61;100.00
6853;BME280;3465;42.144;24.722;2023-08-06T08:19:27;148494.16;;;22.27;100.00
6853;BME280;3465;42.144;24.722;2023-08-06T08:21:53;148540.94;;;22.45;100.00
6853;BME280;3465;42.144;24.722;2023-08-06T08:24:19;148533.34;;;22.42;100.00
6853;BME280;3465;42.144;24.722;2023-08-06T08:26:45;148487.81;;;22.24;100.00
6853;BME280;3465;42.144;24.722;2023-08-06T08:29:10;148506.81;;;22.32;100.00
6853;BME280;3465;42.144;24.722;2023-08-06T08:31:35;148484.03;;;22.23;100.00
6853;BME280;3465;42.144;24.722;2023-08-06T08:34:05;148447.38;;;22.08;100.00
6853;BME280;3465;42.144;24.722;2023-08-06T08:36:30;148484.03;;;22.23;100.00
6853;BME280;3465;42.144;24.722;2023-08-06T08:38:56;148495.41;;;22.27;100.00
6853;BME280;3465;42.144;24.722;2023-08-06T08:41:21;148504.25;;;22.31;100.00
6853;BME280;3465;42.144;24.722;2023-08-06T08:43:49;148466.34;;;22.16;100.00
6853;BME280;3465;42.144;24.722;2023-08-06T08:46:17;148361.34;;;21.74;100.00
6853;BME280;3465;42.144;24.722;2023-08-06T08:48:43;148539.66;;;22.45;100.00
6853;BME280;3465;42.144;24.722;2023-08-06T08:51:09;148567.56;;;22.56;100.00
6853;BME280;3465;42.144;24.722;2023-08-06T08:53:36;148580.16;;;22.61;100.00
6853;BME280;3465;42.144;24.722;2023-08-06T08:56:04;148647.25;;;22.88;100.00
6853;BME280;3465;42.144;24.722;2023-08-06T08:58:30;148721.84;;;23.17;100.00
6853;BME280;3465;42.144;24.722;2023-08-06T09:00:56;149113.25;;;24.72;100.00
6853;BME280;3465;42.144;24.722;2023-08-06T09:03:22;149795.66;;;27.42;91.97
6853;BME280;3465;42.144;24.722;2023-08-06T09:05:52;150207.19;;;29.05;77.08
6853;BME280;3465;42.144;24.722;2023-08-06T09:08:23;150577.34;;;30.51;74.55
6853;BME280;3465;42.144;24.722;2023-08-06T09:10:50;151228.13;;;33.07;64.68
6853;BME280;3465;42.144;24.722;2023-08-06T09:13:17;151643.88;;;34.71;57.15
6853;BME280;3465;42.144;24.722;2023-08-06T09:15:43;151931.13;;;35.84;51.69
6853;BME280;3465;42.144;24.722;2023-08-06T09:18:12;152212.13;;;36.94;46.16
6853;BME280;3465;42.144;24.722;2023-08-06T09:20:40;152138.00;;;36.65;46.31
6853;BME280;3465;42.144;24.722;2023-08-06T09:23:09;152398.69;;;37.68;43.35
6853;BME280;3465;42.144;24.722;2023-08-06T09:25:38;152425.59;;;37.78;43.37
6853;BME280;3465;42.144;24.722;2023-08-06T09:28:05;152457.53;;;37.91;41.81
6853;BME280;3465;42.144;24.722;2023-08-06T09:30:32;152754.28;;;39.07;39.00
6853;BME280;3465;42.144;24.722;2023-08-06T09:32:58;152884.84;;;39.58;35.65
6853;BME280;3465;42.144;24.722;2023-08-06T09:35:24;152997.44;;;40.03;35.98
6853;BME280;3465;42.144;24.722;2023-08-06T09:37:49;152893.75;;;39.62;34.65
6853;BME280;3465;42.144;24.722;2023-08-06T09:42:51;151671.94;;;34.82;42.01
6853;BME280;3465;42.144;24.722;2023-08-06T09:45:17;151267.63;;;33.23;45.11
6853;BME280;3465;42.144;24.722;2023-08-06T09:47:42;150922.34;;;31.87;48.81
6853;BME280;3465;42.144;24.722;2023-08-06T09:50:18;150788.66;;;31.34;50.95
6853;BME280;3465;42.144;24.722;2023-08-06T09:52:44;150923.63;;;31.87;50.88
6853;BME280;3465;42.144;24.722;2023-08-06T09:55:12;151230.66;;;33.08;45.04
6853;BME280;3465;42.144;24.722;2023-08-06T09:57:38;151638.75;;;34.69;41.58
6853;BME280;3465;42.144;24.722;2023-08-06T10:00:04;151979.63;;;36.03;38.00
6853;BME280;3465;42.144;24.722;2023-08-06T10:02:32;152272.16;;;37.18;36.65
6853;BME280;3465;42.144;24.722;2023-08-06T10:04:58;152636.59;;;38.61;34.48
6853;BME280;3465;42.144;24.722;2023-08-06T10:07:24;152786.28;;;39.20;33.15
6853;BME280;3465;42.144;24.722;2023-08-06T10:09:50;152970.59;;;39.92;31.00
6853;BME280;3465;42.144;24.722;2023-08-06T10:12:15;153029.44;;;40.15;29.91
6853;BME280;3465;42.144;24.722;2023-08-06T10:14:43;153161.31;;;40.67;29.90
6853;BME280;3465;42.144;24.722;2023-08-06T10:17:10;153192.13;;;40.79;27.90
6853;BME280;3465;42.144;24.722;2023-08-06T10:19:36;153129.34;;;40.54;29.01
6853;BME280;3465;42.144;24.722;2023-08-06T10:27:19;153194.66;;;40.80;27.38
6853;BME280;3465;42.144;24.722;2023-08-06T10:29:45;153110.16;;;40.47;27.35
6853;BME280;3465;42.144;24.722;2023-08-06T10:32:10;153151.09;;;40.63;27.99
6853;BME280;3465;42.144;24.722;2023-08-06T10:37:24;153076.88;;;40.34;27.27
6853;BME280;3465;42.144;24.722;2023-08-06T10:39:50;153055.03;;;40.25;27.95
6853;BME280;3465;42.144;24.722;2023-08-06T10:42:21;152937.28;;;39.79;28.42
6853;BME280;3465;42.144;24.722;2023-08-06T10:45:15;152742.78;;;39.03;28.95
6853;BME280;3465;42.144;24.722;2023-08-06T10:47:42;152776.03;;;39.16;28.33
6853;BME280;3465;42.144;24.722;2023-08-06T10:50:10;152935.97;;;39.78;28.21
6853;BME280;3465;42.144;24.722;2023-08-06T10:52:36;152992.31;;;40.01;26.94
6853;BME280;3465;42.144;24.722;2023-08-06T10:55:01;153158.78;;;40.66;27.71
6853;BME280;3465;42.144;24.722;2023-08-06T10:57:26;153099.88;;;40.43;27.22
6853;BME280;3465;42.144;24.722;2023-08-06T10:59:52;152797.78;;;39.24;28.57
6853;BME280;3465;42.144;24.722;2023-08-06T11:02:17;152758.09;;;39.09;28.68
6853;BME280;3465;42.144;24.722;2023-08-06T11:04:43;152925.78;;;39.74;28.13
6853;BME280;3465;42.144;24.722;2023-08-06T11:07:08;153103.72;;;40.44;27.15
6853;BME280;3465;42.144;24.722;2023-08-06T11:09:33;153258.66;;;41.05;25.38
6853;BME280;3465;42.144;24.722;2023-08-06T11:11:59;153284.31;;;41.15;25.28
6853;BME280;3465;42.144;24.722;2023-08-06T11:14:24;153158.78;;;40.66;25.35
6853;BME280;3465;42.144;24.722;2023-08-06T11:16:50;153125.50;;;40.53;25.29
6853;BME280;3465;42.144;24.722;2023-08-06T11:19:15;153215.16;;;40.88;25.59
6853;BME280;3465;42.144;24.722;2023-08-06T11:21:42;153130.63;;;40.55;25.24
6853;BME280;3465;42.144;24.722;2023-08-06T11:24:10;153087.09;;;40.38;25.82
6853;BME280;3465;42.144;24.722;2023-08-06T11:26:36;153184.41;;;40.76;25.54
6853;BME280;3465;42.144;24.722;2023-08-06T11:29:03;152983.34;;;39.97;25.92
6853;BME280;3465;42.144;24.722;2023-08-06T11:31:28;152727.38;;;38.97;28.08
6853;BME280;3465;42.144;24.722;2023-08-06T11:33:54;152586.66;;;38.41;28.28
6853;BME280;3465;42.144;24.722;2023-08-06T11:36:33;152718.44;;;38.93;27.64
6853;BME280;3465;42.144;24.722;2023-08-06T11:39:00;152731.22;;;38.98;27.76
6853;BME280;3465;42.144;24.722;2023-08-06T11:41:28;152634.06;;;38.60;26.54
6853;BME280;3465;42.144;24.722;2023-08-06T11:43:53;152250.47;;;37.09;29.35
6853;BME280;3465;42.144;24.722;2023-08-06T11:46:19;151904.25;;;35.73;30.66
6853;BME280;3465;42.144;24.722;2023-08-06T11:48:52;151664.28;;;34.79;31.65
6853;BME280;3465;42.144;24.722;2023-08-06T11:51:17;151551.97;;;34.35;32.86
6853;BME280;3465;42.144;24.722;2023-08-06T11:53:48;151601.78;;;34.54;32.78
6853;BME280;3465;42.144;24.722;2023-08-06T11:56:14;151696.22;;;34.92;31.50
6853;BME280;3465;42.144;24.722;2023-08-06T11:58:41;151807.22;;;35.35;31.78
6853;BME280;3465;42.144;24.722;2023-08-06T12:01:06;151696.22;;;34.92;31.18
6853;BME280;3465;42.144;24.722;2023-08-06T12:03:32;151605.59;;;34.56;31.44
6853;BME280;3465;42.144;24.722;2023-08-06T12:05:57;151421.88;;;33.84;32.97
6853;BME280;3465;42.144;24.722;2023-08-06T12:08:26;151351.81;;;33.56;33.45
6853;BME280;3465;42.144;24.722;2023-08-06T12:10:52;151165.63;;;32.83;34.88
6853;BME280;3465;42.144;24.722;2023-08-06T12:13:19;151160.53;;;32.81;34.57
6853;BME280;3465;42.144;24.722;2023-08-06T12:15:45;151132.50;;;32.70;35.03
6853;BME280;3465;42.144;24.722;2023-08-06T12:18:10;151229.41;;;33.08;34.53
6853;BME280;3465;42.144;24.722;2023-08-06T12:20:37;151456.38;;;33.97;33.54
6853;BME280;3465;42.144;24.722;2023-08-06T12:23:04;151753.63;;;35.14;31.32
6853;BME280;3465;42.144;24.722;2023-08-06T12:25:29;151737.03;;;35.08;30.19
6853;BME280;3465;42.144;24.722;2023-08-06T12:27:55;151712.81;;;34.98;30.80
6853;BME280;3465;42.144;24.722;2023-08-06T12:30:20;151604.34;;;34.55;31.35
6853;BME280;3465;42.144;24.722;2023-08-06T12:32:45;151483.13;;;34.08;32.31
6853;BME280;3465;42.144;24.722;2023-08-06T12:35:11;151326.31;;;33.46;32.56
6853;BME280;3465;42.144;24.722;2023-08-06T12:37:36;151198.81;;;32.96;33.81
6853;BME280;3465;42.144;24.722;2023-08-06T12:40:04;151122.34;;;32.66;34.92
6853;BME280;3465;42.144;24.722;2023-08-06T12:42:29;151124.88;;;32.67;35.36
6853;BME280;3465;42.144;24.722;2023-08-06T12:44:55;151188.66;;;32.92;38.13
6853;BME280;3465;42.144;24.722;2023-08-06T12:47:20;151160.53;;;32.81;37.59
6853;BME280;3465;42.144;24.722;2023-08-06T12:49:46;151186.06;;;32.91;35.25
6853;BME280;3465;42.144;24.722;2023-08-06T12:52:11;151150.38;;;32.77;35.30
6853;BME280;3465;42.144;24.722;2023-08-06T12:54:40;151103.19;;;32.58;35.28
6853;BME280;3465;42.144;24.722;2023-08-06T12:57:05;151056.09;;;32.40;34.75
6853;BME280;3465;42.144;24.722;2023-08-06T12:59:31;150987.28;;;32.13;35.66
6853;BME280;3465;42.144;24.722;2023-08-06T13:01:58;150935.09;;;31.92;35.22
6853;BME280;3465;42.144;24.722;2023-08-06T13:04:23;150857.38;;;31.61;35.86
6853;BME280;3465;42.144;24.722;2023-08-06T13:06:49;150927.47;;;31.89;35.66
6853;BME280;3465;42.144;24.722;2023-08-06T13:09:15;150910.84;;;31.82;34.23